Ewing, Missouri
Current Conditions -  °F | °C
As of 3:15 PM on Tuesday 27 Jan 2015 (Local Time) from KHAE Reporting Station
Scattered Clouds Scattered Clouds  
Wind Chill: 45°   Ceiling: Unl
Heat Index: 45°   Visibility: 10mi
Dew Point: 30°   Wind: 3mph
Humidity: 57%   Direction: 30°NNE
Pressure: 30.17"   Gusts: NA
Location:  40.01°N, 91.71°W
Report Text: KHAE 272115Z AUTO 03003KT 10SM SCT028 07/M01 A3017 RMK AO2
Loading
Personal Weather Stations






























Interactive Weather Map New forecast layout! Learn more

10-Day Weather Forecast

Advertisements
Track Severe Weather on mobile